createdAt,value
2023-09-16T00:01:52.408Z,11.73
2023-09-16T00:04:19.635Z,9.10
2023-09-16T00:06:47.599Z,6.75
2023-09-16T00:09:14.595Z,8.80
2023-09-16T00:11:41.592Z,9.75
2023-09-16T00:14:08.516Z,7.60
2023-09-16T00:16:35.495Z,7.53
2023-09-16T00:19:04.346Z,11.35
2023-09-16T00:21:31.432Z,9.75
2023-09-16T00:24:01.477Z,6.28
2023-09-16T00:26:28.476Z,9.48
2023-09-16T00:28:55.811Z,7.53
2023-09-16T00:31:22.930Z,8.68
2023-09-16T00:33:50.730Z,10.75
2023-09-16T00:36:17.822Z,7.35
2023-09-16T00:38:45.058Z,8.63
2023-09-16T00:41:13.750Z,7.03
2023-09-16T00:43:40.996Z,6.43
2023-09-16T00:46:07.959Z,6.82
2023-09-16T00:48:36.585Z,7.60
2023-09-16T00:51:04.381Z,6.90
2023-09-16T00:53:31.541Z,8.45
2023-09-16T00:55:58.568Z,14.50
2023-09-16T00:58:25.681Z,7.22
2023-09-16T01:00:53.898Z,9.35
2023-09-16T01:03:21.092Z,9.25
2023-09-16T01:05:48.920Z,9.75
2023-09-16T01:08:17.568Z,10.85
2023-09-16T01:10:44.775Z,10.98
2023-09-16T01:13:12.135Z,7.32
2023-09-16T01:15:47.869Z,10.75
2023-09-16T01:18:22.774Z,6.50
2023-09-16T01:20:51.317Z,7.60
2023-09-16T01:23:21.170Z,8.50
2023-09-16T01:25:48.313Z,13.80
2023-09-16T01:28:15.659Z,7.10
2023-09-16T01:30:48.377Z,7.22
2023-09-16T01:33:28.559Z,11.82
2023-09-16T01:36:06.642Z,9.80
2023-09-16T01:38:38.528Z,6.40
2023-09-16T01:41:06.251Z,7.18
2023-09-16T01:43:33.588Z,15.48
2023-09-16T01:46:00.776Z,8.32
2023-09-16T01:48:44.484Z,7.22
2023-09-16T01:51:14.496Z,9.00
2023-09-16T01:53:43.129Z,9.23
2023-09-16T01:56:10.088Z,9.20
2023-09-16T01:58:37.121Z,7.82
2023-09-16T02:01:12.462Z,11.05
2023-09-16T02:03:39.528Z,8.30
2023-09-16T02:06:09.743Z,6.00
2023-09-16T02:08:38.348Z,10.73
2023-09-16T02:11:05.838Z,14.45
2023-09-16T02:13:33.992Z,11.05
2023-09-16T02:16:01.257Z,8.18
2023-09-16T02:18:29.025Z,10.50
2023-09-16T02:20:56.011Z,8.75
2023-09-16T02:23:23.484Z,13.75
2023-09-16T02:25:50.469Z,9.98
2023-09-16T02:28:17.375Z,8.75
2023-09-16T02:30:44.513Z,9.35
2023-09-16T02:33:11.627Z,7.93
2023-09-16T02:35:40.715Z,12.85
2023-09-16T02:38:07.879Z,12.07
2023-09-16T02:40:35.253Z,11.13
2023-09-16T02:43:02.325Z,11.07
2023-09-16T02:45:29.364Z,9.52
2023-09-16T02:47:56.443Z,10.27
2023-09-16T02:50:23.380Z,10.73
2023-09-16T02:52:50.414Z,9.18
2023-09-16T02:55:17.555Z,10.50
2023-09-16T02:57:44.743Z,9.95
2023-09-16T03:00:12.255Z,12.95
2023-09-16T03:02:39.255Z,9.68
2023-09-16T03:05:06.537Z,9.60
2023-09-16T03:07:33.474Z,11.43
2023-09-16T03:10:00.622Z,11.98
2023-09-16T03:12:27.699Z,11.52
2023-09-16T03:14:54.684Z,8.65
2023-09-16T03:17:21.706Z,10.82
2023-09-16T03:19:48.735Z,11.38
2023-09-16T03:22:15.688Z,13.38
2023-09-16T03:24:43.871Z,8.77
2023-09-16T03:27:11.592Z,11.68
2023-09-16T03:29:38.652Z,12.48
2023-09-16T03:32:05.766Z,11.25
2023-09-16T03:34:34.146Z,8.70
2023-09-16T03:37:01.191Z,10.85
2023-09-16T03:39:28.556Z,12.20
2023-09-16T03:41:56.187Z,13.70
2023-09-16T03:44:23.949Z,10.95
2023-09-16T03:46:51.030Z,10.95
2023-09-16T03:49:18.311Z,11.10
2023-09-16T03:51:47.119Z,11.00
2023-09-16T03:54:14.588Z,10.32
2023-09-16T03:56:43.380Z,11.73
2023-09-16T03:59:13.099Z,10.13
2023-09-16T04:01:40.109Z,10.15
2023-09-16T04:04:08.946Z,10.05
2023-09-16T04:06:36.013Z,11.40
2023-09-16T04:09:03.059Z,11.75
2023-09-16T04:11:30.033Z,9.93
2023-09-16T04:13:57.261Z,10.40
2023-09-16T04:16:26.824Z,13.27
2023-09-16T04:18:54.836Z,13.40
2023-09-16T04:21:21.980Z,14.27
2023-09-16T04:23:49.254Z,13.55
2023-09-16T04:26:17.426Z,11.20
2023-09-16T04:28:47.148Z,12.05
2023-09-16T04:31:14.320Z,10.27
2023-09-16T04:33:42.153Z,12.88
2023-09-16T04:36:10.858Z,9.95
2023-09-16T04:38:38.943Z,11.00
2023-09-16T04:41:06.874Z,12.20
2023-09-16T04:43:34.322Z,13.75
2023-09-16T04:46:02.536Z,13.32
2023-09-16T04:48:37.197Z,12.20
2023-09-16T04:51:05.017Z,14.00
2023-09-16T04:53:33.466Z,10.52
2023-09-16T04:56:01.950Z,11.00
2023-09-16T04:58:32.530Z,12.77
2023-09-16T05:01:01.357Z,10.55
2023-09-16T05:03:29.191Z,14.02
2023-09-16T05:05:56.364Z,11.75
2023-09-16T05:08:29.307Z,12.10
2023-09-16T05:10:57.535Z,15.48
2023-09-16T05:13:24.872Z,12.98
2023-09-16T05:15:52.985Z,14.13
2023-09-16T05:18:20.019Z,13.50
2023-09-16T05:20:50.914Z,13.02
2023-09-16T05:23:18.284Z,13.38
2023-09-16T05:25:47.540Z,13.10
2023-09-16T05:28:18.654Z,15.07
2023-09-16T05:30:46.140Z,15.65
2023-09-16T05:33:15.516Z,12.02
2023-09-16T05:35:43.499Z,12.45
2023-09-16T05:38:11.001Z,19.67
2023-09-16T05:40:38.500Z,13.95
2023-09-16T05:43:06.312Z,12.25
2023-09-16T05:45:33.377Z,13.15
2023-09-16T05:48:04.656Z,11.73
2023-09-16T05:50:36.659Z,12.52
2023-09-16T05:53:07.086Z,17.90
2023-09-16T05:55:44.453Z,14.35
2023-09-16T05:58:13.456Z,13.73
2023-09-16T06:00:41.494Z,12.30
2023-09-16T06:03:08.801Z,11.60
2023-09-16T06:05:35.905Z,12.05
2023-09-16T06:08:03.642Z,14.38
2023-09-16T06:10:30.712Z,12.60
2023-09-16T06:12:57.785Z,12.82
2023-09-16T06:15:25.002Z,14.30
2023-09-16T06:17:51.945Z,14.82
2023-09-16T06:20:18.963Z,12.75
2023-09-16T06:22:46.051Z,13.25
2023-09-16T06:25:15.896Z,15.50
2023-09-16T06:27:42.981Z,18.38
2023-09-16T06:30:10.976Z,16.33
2023-09-16T06:32:39.033Z,12.27
2023-09-16T06:35:06.528Z,12.07
2023-09-16T06:37:33.530Z,14.68
2023-09-16T06:40:01.406Z,10.95
2023-09-16T06:42:28.638Z,13.07
2023-09-16T06:44:56.552Z,18.58
2023-09-16T06:47:27.906Z,11.38
2023-09-16T06:49:56.185Z,13.13
2023-09-16T06:52:23.723Z,16.77
2023-09-16T06:54:51.211Z,9.88
2023-09-16T06:57:18.202Z,13.63
2023-09-16T06:59:48.916Z,12.57
2023-09-16T07:02:16.945Z,13.60
2023-09-16T07:04:44.128Z,11.68
2023-09-16T07:07:11.145Z,12.77
2023-09-16T07:09:38.316Z,11.98
2023-09-16T07:12:07.483Z,11.82
2023-09-16T07:14:38.804Z,12.43
2023-09-16T07:17:06.395Z,11.30
2023-09-16T07:19:35.384Z,13.07
2023-09-16T07:22:02.649Z,9.82
2023-09-16T07:24:30.119Z,12.20
2023-09-16T07:26:57.740Z,12.50
2023-09-16T07:29:24.805Z,11.38
2023-09-16T07:31:51.962Z,15.85
2023-09-16T07:34:20.696Z,13.98
2023-09-16T07:36:47.894Z,10.55
2023-09-16T07:39:15.069Z,12.32
2023-09-16T07:41:43.163Z,13.73
2023-09-16T07:44:10.288Z,14.82
2023-09-16T07:46:37.504Z,10.50
2023-09-16T07:49:04.598Z,12.15
2023-09-16T07:51:31.731Z,11.05
2023-09-16T07:53:58.700Z,9.32
2023-09-16T07:56:25.836Z,10.68
2023-09-16T07:58:52.963Z,10.10
2023-09-16T08:01:20.147Z,18.65
2023-09-16T08:03:47.346Z,10.50
2023-09-16T08:06:14.512Z,10.50
2023-09-16T08:08:41.526Z,11.15
2023-09-16T08:11:08.619Z,11.10
2023-09-16T08:13:35.683Z,11.85
2023-09-16T08:16:02.851Z,10.60
2023-09-16T08:18:29.908Z,12.77
2023-09-16T08:20:57.101Z,14.75
2023-09-16T08:23:24.094Z,11.90
2023-09-16T08:25:51.090Z,8.38
2023-09-16T08:28:18.161Z,11.93
2023-09-16T08:30:45.179Z,8.13
2023-09-16T08:33:12.555Z,7.03
2023-09-16T08:35:39.573Z,10.73
2023-09-16T08:38:08.638Z,8.45
2023-09-16T08:40:35.741Z,8.10
2023-09-16T08:43:18.925Z,9.45
2023-09-16T08:45:55.395Z,8.73
2023-09-16T08:48:26.768Z,10.55
2023-09-16T08:50:55.462Z,8.13
2023-09-16T08:53:25.972Z,8.45
2023-09-16T08:55:53.718Z,7.57
2023-09-16T08:58:21.439Z,9.30
2023-09-16T09:00:48.592Z,10.02
2023-09-16T09:03:15.678Z,10.90
2023-09-16T09:05:44.750Z,9.43
2023-09-16T09:08:13.091Z,8.77
2023-09-16T09:10:43.750Z,8.35
2023-09-16T09:13:14.054Z,8.02
2023-09-16T09:15:42.638Z,13.82
2023-09-16T09:18:13.094Z,9.57
2023-09-16T09:20:40.191Z,9.23
2023-09-16T09:23:11.407Z,7.85
2023-09-16T09:25:43.056Z,9.20
2023-09-16T09:28:10.526Z,7.20
2023-09-16T09:30:40.676Z,7.38
2023-09-16T09:33:15.373Z,8.02
2023-09-16T09:35:43.165Z,6.53
2023-09-16T09:38:10.128Z,6.88
2023-09-16T09:40:37.185Z,7.38
2023-09-16T09:43:04.992Z,5.32
2023-09-16T09:45:38.081Z,6.70
2023-09-16T09:48:05.475Z,5.97
2023-09-16T09:50:33.186Z,7.88
2023-09-16T09:53:02.381Z,9.75
2023-09-16T09:55:31.102Z,7.40
2023-09-16T09:57:58.420Z,11.60
2023-09-16T10:00:25.590Z,4.15
2023-09-16T10:05:36.717Z,5.90
2023-09-16T10:08:04.019Z,4.22
2023-09-16T10:10:33.050Z,5.00
2023-09-16T10:13:00.156Z,4.78
2023-09-16T10:15:28.943Z,4.60
2023-09-16T10:17:57.872Z,6.47
2023-09-16T10:20:25.196Z,4.75
2023-09-16T10:22:53.842Z,6.45
2023-09-16T10:25:21.135Z,7.28
2023-09-16T10:28:05.162Z,4.05
2023-09-16T10:30:34.383Z,3.33
2023-09-16T10:33:03.518Z,5.70
2023-09-16T10:35:31.217Z,4.07
2023-09-16T10:38:01.227Z,6.28
2023-09-16T10:40:28.705Z,5.55
2023-09-16T10:42:57.562Z,3.30
2023-09-16T10:45:27.072Z,4.85
2023-09-16T10:47:55.591Z,3.92
2023-09-16T10:50:30.423Z,4.18
2023-09-16T10:53:12.205Z,3.40
2023-09-16T10:55:52.884Z,3.85
2023-09-16T10:58:33.476Z,3.63
2023-09-16T11:01:02.377Z,6.57
2023-09-16T11:03:33.651Z,3.65
2023-09-16T11:06:02.922Z,3.00
2023-09-16T11:08:30.224Z,3.80
2023-09-16T11:10:57.792Z,3.63
2023-09-16T11:13:27.955Z,7.70
2023-09-16T11:15:59.227Z,4.07
2023-09-16T11:18:26.545Z,3.58
2023-09-16T11:20:55.075Z,3.33
2023-09-16T11:23:23.166Z,4.68
2023-09-16T11:25:50.263Z,5.13
2023-09-16T11:28:20.695Z,7.20
2023-09-16T11:30:59.935Z,3.05
2023-09-16T11:33:27.187Z,3.88
2023-09-16T11:36:23.751Z,3.33
2023-09-16T11:39:12.960Z,4.22
2023-09-16T11:41:40.090Z,3.50
2023-09-16T11:44:08.856Z,3.13
2023-09-16T11:46:36.322Z,2.33
2023-09-16T11:49:06.887Z,3.05
2023-09-16T11:51:35.773Z,3.45
2023-09-16T11:54:04.031Z,4.85
2023-09-16T11:56:32.707Z,6.03
2023-09-16T11:59:00.120Z,2.92
2023-09-16T12:01:39.352Z,4.55
2023-09-16T12:04:07.860Z,2.75
2023-09-16T12:06:37.002Z,4.55
2023-09-16T12:09:06.633Z,2.85
2023-09-16T12:11:35.042Z,2.72
2023-09-16T12:14:04.570Z,2.75
2023-09-16T12:16:32.047Z,2.95
2023-09-16T12:18:59.131Z,5.05
2023-09-16T12:21:26.377Z,2.75
2023-09-16T12:23:53.666Z,3.83
2023-09-16T12:26:21.127Z,6.70
2023-09-16T12:28:48.982Z,3.63
2023-09-16T12:31:25.035Z,2.50
2023-09-16T12:33:56.838Z,3.30
2023-09-16T12:36:31.539Z,2.00
2023-09-16T12:39:01.718Z,3.25
2023-09-16T12:41:30.370Z,3.05
2023-09-16T12:43:59.339Z,3.58
2023-09-16T12:46:29.652Z,3.92
2023-09-16T12:48:57.685Z,3.30
2023-09-16T12:51:25.490Z,3.25
2023-09-16T12:53:54.993Z,3.47
2023-09-16T12:56:24.897Z,2.17
2023-09-16T12:58:52.457Z,2.88
2023-09-16T13:01:21.414Z,4.28
2023-09-16T13:03:48.985Z,3.83
2023-09-16T13:06:16.393Z,5.43
2023-09-16T13:08:44.767Z,7.43
2023-09-16T13:11:15.331Z,3.30
2023-09-16T13:13:42.496Z,2.72
2023-09-16T13:16:12.140Z,4.22
2023-09-16T13:18:40.713Z,3.15
2023-09-16T13:21:08.255Z,4.90
2023-09-16T13:23:35.692Z,2.97
2023-09-16T13:26:12.135Z,2.35
2023-09-16T13:28:39.556Z,3.55
2023-09-16T13:31:07.037Z,4.05
2023-09-16T13:33:50.899Z,3.20
2023-09-16T13:36:18.189Z,3.08
2023-09-16T13:38:46.506Z,3.97
2023-09-16T13:41:13.716Z,2.42
2023-09-16T13:43:40.689Z,3.78
2023-09-16T13:46:07.868Z,3.42
2023-09-16T13:48:35.498Z,2.33
2023-09-16T13:51:05.554Z,2.95
2023-09-16T13:53:32.658Z,2.40
2023-09-16T13:56:00.258Z,5.45
2023-09-16T13:58:27.848Z,6.57
2023-09-16T14:00:55.748Z,3.28
2023-09-16T14:03:23.074Z,10.45
2023-09-16T14:05:50.338Z,2.67
2023-09-16T14:08:17.446Z,3.30
2023-09-16T14:10:44.614Z,4.53
2023-09-16T14:13:11.845Z,4.03
2023-09-16T14:15:40.454Z,3.72
2023-09-16T14:18:09.460Z,5.22
2023-09-16T14:20:37.516Z,3.25
2023-09-16T14:23:06.721Z,4.47
2023-09-16T14:25:35.451Z,7.18
2023-09-16T14:28:06.453Z,2.45
2023-09-16T14:30:33.604Z,3.92
2023-09-16T14:33:00.849Z,3.30
2023-09-16T14:35:35.734Z,4.00
2023-09-16T14:38:05.275Z,6.70
2023-09-16T14:40:35.651Z,4.05
2023-09-16T14:43:03.897Z,4.35
2023-09-16T14:45:31.102Z,5.43
2023-09-16T14:47:58.553Z,4.60
2023-09-16T14:50:26.057Z,6.03
2023-09-16T14:52:53.184Z,4.20
2023-09-16T14:55:20.609Z,3.30
2023-09-16T14:57:48.830Z,3.92
2023-09-16T15:00:15.975Z,3.47
2023-09-16T15:02:43.794Z,3.22
2023-09-16T15:05:13.372Z,3.50
2023-09-16T15:07:40.755Z,3.17
2023-09-16T15:10:08.911Z,3.05
2023-09-16T15:12:36.265Z,3.80
2023-09-16T15:15:03.412Z,3.25
2023-09-16T15:17:30.481Z,4.93
2023-09-16T15:19:58.534Z,3.75
2023-09-16T15:22:26.523Z,3.90
2023-09-16T15:24:53.773Z,4.60
2023-09-16T15:27:21.580Z,4.13
2023-09-16T15:29:48.782Z,4.07
2023-09-16T15:32:39.013Z,6.00
2023-09-16T15:35:03.350Z,3.55
2023-09-16T15:37:31.845Z,3.08
2023-09-16T15:39:58.969Z,4.53
2023-09-16T15:42:26.234Z,2.65
2023-09-16T15:44:56.052Z,8.90
2023-09-16T15:47:23.439Z,4.25
2023-09-16T15:49:50.519Z,3.90
2023-09-16T15:52:18.396Z,3.85
2023-09-16T15:54:45.468Z,5.35
2023-09-16T15:57:12.540Z,4.22
2023-09-16T15:59:39.790Z,5.35
2023-09-16T16:02:07.519Z,4.20
2023-09-16T16:04:34.982Z,3.80
2023-09-16T16:07:02.074Z,4.53
2023-09-16T16:09:29.175Z,4.35
2023-09-16T16:11:56.294Z,2.92
2023-09-16T16:14:23.380Z,3.25
2023-09-16T16:16:50.722Z,7.55
2023-09-16T16:19:18.298Z,4.53
2023-09-16T16:21:46.592Z,2.88
2023-09-16T16:24:13.641Z,3.85
2023-09-16T16:26:40.626Z,4.13
2023-09-16T16:29:08.291Z,4.13
2023-09-16T16:31:35.364Z,8.60
2023-09-16T16:34:02.508Z,5.15
2023-09-16T16:36:29.601Z,4.15
2023-09-16T16:38:57.445Z,4.93
2023-09-16T16:41:24.882Z,6.28
2023-09-16T16:43:52.405Z,3.47
2023-09-16T16:46:19.986Z,4.72
2023-09-16T16:48:47.183Z,3.42
2023-09-16T16:51:14.976Z,4.60
2023-09-16T16:53:42.055Z,4.63
2023-09-16T16:56:09.231Z,6.45
2023-09-16T16:58:37.027Z,5.35
2023-09-16T17:01:04.420Z,4.32
2023-09-16T17:03:31.592Z,4.53
2023-09-16T17:05:59.109Z,6.32
2023-09-16T17:08:26.234Z,9.23
2023-09-16T17:10:53.467Z,7.75
2023-09-16T17:13:20.575Z,4.32
2023-09-16T17:15:47.799Z,4.93
2023-09-16T17:18:14.979Z,6.60
2023-09-16T17:20:42.169Z,4.28
2023-09-16T17:23:09.303Z,3.30
2023-09-16T17:25:38.563Z,6.25
2023-09-16T17:28:08.737Z,5.28
2023-09-16T17:30:35.991Z,5.40
2023-09-16T17:33:04.696Z,15.10
2023-09-16T17:35:32.176Z,5.20
2023-09-16T17:37:59.295Z,6.63
2023-09-16T17:40:26.346Z,3.50
2023-09-16T17:42:53.421Z,8.00
2023-09-16T17:45:20.440Z,6.22
2023-09-16T17:47:47.681Z,11.70
2023-09-16T17:50:15.196Z,5.65
2023-09-16T17:52:42.619Z,6.68
2023-09-16T17:55:10.166Z,6.60
2023-09-16T17:57:37.277Z,7.22
2023-09-16T18:00:04.738Z,8.73
2023-09-16T18:02:40.681Z,3.97
2023-09-16T18:05:08.187Z,4.20
2023-09-16T18:07:36.177Z,9.68
2023-09-16T18:10:04.808Z,6.28
2023-09-16T18:12:31.959Z,7.47
2023-09-16T18:14:59.171Z,6.20
2023-09-16T18:17:26.713Z,11.98
2023-09-16T18:19:53.735Z,9.00
2023-09-16T18:22:20.929Z,5.13
2023-09-16T18:24:47.986Z,6.18
2023-09-16T18:27:15.029Z,9.63
2023-09-16T18:29:42.065Z,10.30
2023-09-16T18:32:09.195Z,6.50
2023-09-16T18:34:36.378Z,5.78
2023-09-16T18:37:04.644Z,5.65
2023-09-16T18:39:32.047Z,4.78
2023-09-16T18:41:59.127Z,5.28
2023-09-16T18:44:27.546Z,5.38
2023-09-16T18:46:56.618Z,10.18
2023-09-16T18:49:24.371Z,5.15
2023-09-16T18:51:51.673Z,5.78
2023-09-16T18:54:18.739Z,4.97
2023-09-16T18:56:45.859Z,7.80
2023-09-16T18:59:15.945Z,5.35
2023-09-16T19:01:43.698Z,5.25
2023-09-16T19:04:10.885Z,7.95
2023-09-16T19:06:37.903Z,6.38
2023-09-16T19:09:05.644Z,12.45
2023-09-16T19:11:32.776Z,6.68
2023-09-16T19:13:59.879Z,7.70
2023-09-16T19:16:26.985Z,6.95
2023-09-16T19:18:54.112Z,7.15
2023-09-16T19:21:21.340Z,4.80
2023-09-16T19:23:49.485Z,9.00
2023-09-16T19:26:16.783Z,8.43
2023-09-16T19:28:43.839Z,10.23
2023-09-16T19:31:10.909Z,7.63
2023-09-16T19:33:38.029Z,11.73
2023-09-16T19:36:05.400Z,14.00
2023-09-16T19:38:42.104Z,6.22
2023-09-16T19:41:10.044Z,6.25
2023-09-16T19:43:37.937Z,8.38
2023-09-16T19:46:09.717Z,15.73
2023-09-16T19:48:37.588Z,9.60
2023-09-16T19:51:05.195Z,5.13
2023-09-16T19:53:33.690Z,4.82
2023-09-16T19:56:01.204Z,6.82
2023-09-16T19:58:28.767Z,5.63
2023-09-16T20:01:01.503Z,6.85
2023-09-16T20:03:30.406Z,5.28
2023-09-16T20:06:04.116Z,6.43
2023-09-16T20:08:31.154Z,6.55
2023-09-16T20:10:58.411Z,4.22
2023-09-16T20:13:25.832Z,7.18
2023-09-16T20:15:52.938Z,8.32
2023-09-16T20:18:20.009Z,5.20
2023-09-16T20:20:47.450Z,5.63
2023-09-16T20:23:14.457Z,5.65
2023-09-16T20:25:45.251Z,8.95
2023-09-16T20:28:12.752Z,6.95
2023-09-16T20:30:39.802Z,6.05
2023-09-16T20:33:07.189Z,6.60
2023-09-16T20:35:34.274Z,8.27
2023-09-16T20:38:01.992Z,8.30
2023-09-16T20:40:29.285Z,5.97
2023-09-16T20:42:56.618Z,7.68
2023-09-16T20:45:24.076Z,9.88
2023-09-16T20:47:51.247Z,5.80
2023-09-16T20:50:19.964Z,5.07
2023-09-16T20:52:46.947Z,5.38
2023-09-16T20:55:14.063Z,4.97
2023-09-16T20:57:41.142Z,5.10
2023-09-16T21:00:10.626Z,4.78
2023-09-16T21:02:37.891Z,6.38
2023-09-16T21:05:05.489Z,5.40
2023-09-16T21:07:35.800Z,8.30
2023-09-16T21:10:05.087Z,3.95
2023-09-16T21:12:32.154Z,8.48
2023-09-16T21:14:59.257Z,5.88
2023-09-16T21:17:26.386Z,5.72
2023-09-16T21:19:53.486Z,8.75
2023-09-16T21:22:20.528Z,7.07
2023-09-16T21:24:49.540Z,6.82
2023-09-16T21:27:16.804Z,6.47
2023-09-16T21:29:43.790Z,13.30
2023-09-16T21:32:12.504Z,6.97
2023-09-16T21:34:39.682Z,5.85
2023-09-16T21:37:06.841Z,10.63
2023-09-16T21:39:37.325Z,6.13
2023-09-16T21:42:05.737Z,5.88
2023-09-16T21:44:33.623Z,8.32
2023-09-16T21:47:00.923Z,6.47
2023-09-16T21:49:28.105Z,4.47
2023-09-16T21:51:55.266Z,5.95
2023-09-16T21:54:22.634Z,7.28
2023-09-16T21:56:49.639Z,8.43
2023-09-16T21:59:16.687Z,4.75
2023-09-16T22:01:43.997Z,9.95
2023-09-16T22:04:12.125Z,8.77
2023-09-16T22:06:39.284Z,5.68
2023-09-16T22:09:06.344Z,8.43
2023-09-16T22:11:33.435Z,6.00
2023-09-16T22:14:00.514Z,6.55
2023-09-16T22:16:30.447Z,7.03
2023-09-16T22:18:57.605Z,7.30
2023-09-16T22:21:24.682Z,6.40
2023-09-16T22:23:51.928Z,7.20
2023-09-16T22:26:19.274Z,7.55
2023-09-16T22:28:46.413Z,7.93
2023-09-16T22:31:16.957Z,8.82
2023-09-16T22:33:44.480Z,9.15
2023-09-16T22:36:11.597Z,6.10
2023-09-16T22:38:38.681Z,9.18
2023-09-16T22:41:05.990Z,8.73
2023-09-16T22:43:33.067Z,11.48
2023-09-16T22:46:00.059Z,7.63
2023-09-16T22:48:27.083Z,6.68
2023-09-16T22:50:54.231Z,7.40
2023-09-16T22:53:21.294Z,9.65
2023-09-16T22:55:48.359Z,7.60
2023-09-16T22:58:15.447Z,7.95
2023-09-16T23:00:42.617Z,9.48
2023-09-16T23:03:09.861Z,7.15
2023-09-16T23:05:37.043Z,8.70
2023-09-16T23:08:04.576Z,6.70
2023-09-16T23:10:31.883Z,7.30
2023-09-16T23:12:58.963Z,8.27
2023-09-16T23:15:26.134Z,8.23
2023-09-16T23:17:54.408Z,9.38
2023-09-16T23:20:21.768Z,11.85
2023-09-16T23:22:48.779Z,6.80
2023-09-16T23:25:16.514Z,6.82
2023-09-16T23:27:43.657Z,7.68
2023-09-16T23:30:11.215Z,7.20
2023-09-16T23:32:38.243Z,9.00
2023-09-16T23:35:05.565Z,7.78
2023-09-16T23:37:32.986Z,8.15
2023-09-16T23:40:00.387Z,12.00
2023-09-16T23:42:27.743Z,6.78
2023-09-16T23:44:55.082Z,9.35
2023-09-16T23:47:22.617Z,7.43
2023-09-16T23:49:49.718Z,6.40
2023-09-16T23:52:16.790Z,7.15
2023-09-16T23:54:43.843Z,15.02
2023-09-16T23:57:10.826Z,7.20
2023-09-16T23:59:37.783Z,6.28
